createdAt,value
2018-02-14T00:01:39.534Z,61.90
2018-02-14T00:04:06.507Z,62.00
2018-02-14T00:06:33.482Z,61.90
2018-02-14T00:09:00.556Z,61.90
2018-02-14T00:11:27.523Z,61.80
2018-02-14T00:13:54.568Z,61.70
2018-02-14T00:16:21.543Z,61.80
2018-02-14T00:18:48.527Z,61.60
2018-02-14T00:21:15.642Z,61.80
2018-02-14T00:23:42.714Z,61.90
2018-02-14T00:26:09.691Z,61.90
2018-02-14T00:28:36.679Z,61.80
2018-02-14T00:31:04.427Z,61.70
2018-02-14T00:33:31.406Z,61.70
2018-02-14T00:35:59.151Z,61.90
2018-02-14T00:38:26.190Z,61.90
2018-02-14T00:40:53.256Z,61.80
2018-02-14T00:43:20.329Z,61.50
2018-02-14T00:45:47.371Z,62.00
2018-02-14T00:48:14.430Z,62.10
2018-02-14T00:50:41.573Z,62.30
2018-02-14T00:53:09.298Z,63.10
2018-02-14T00:55:36.271Z,63.10
2018-02-14T00:58:03.255Z,62.80
2018-02-14T01:00:30.232Z,63.10
2018-02-14T01:02:57.219Z,63.00
2018-02-14T01:05:24.190Z,63.20
2018-02-14T01:07:51.175Z,63.30
2018-02-14T01:10:18.995Z,63.40
2018-02-14T01:12:45.972Z,63.40
2018-02-14T01:15:13.023Z,63.30
2018-02-14T01:17:39.999Z,63.50
2018-02-14T01:20:08.930Z,63.20
2018-02-14T01:22:36.669Z,63.50
2018-02-14T01:25:03.715Z,63.50
2018-02-14T01:27:30.770Z,63.00
2018-02-14T01:29:57.747Z,62.90
2018-02-14T01:32:24.726Z,63.40
2018-02-14T01:34:51.750Z,63.50
2018-02-14T01:37:18.722Z,63.50
2018-02-14T01:39:45.772Z,63.30
2018-02-14T01:42:12.827Z,63.60
2018-02-14T01:44:39.811Z,63.60
2018-02-14T01:47:06.788Z,63.80
2018-02-14T01:49:34.540Z,64.40
2018-02-14T01:52:01.584Z,63.80
2018-02-14T01:54:28.569Z,63.90
2018-02-14T01:56:55.538Z,64.90
2018-02-14T01:59:22.555Z,64.10
2018-02-14T02:01:49.614Z,64.20
2018-02-14T02:04:16.678Z,64.10
2018-02-14T02:06:52.647Z,64.00
2018-02-14T02:09:19.635Z,64.30
2018-02-14T02:11:46.615Z,64.20
2018-02-14T02:14:14.447Z,63.80
2018-02-14T02:16:41.583Z,63.70
2018-02-14T02:19:09.379Z,64.60
2018-02-14T02:21:36.442Z,64.50
2018-02-14T02:24:03.424Z,64.70
2018-02-14T02:26:30.398Z,64.70
2018-02-14T02:28:57.374Z,64.90
2018-02-14T02:31:25.195Z,64.70
2018-02-14T02:33:52.174Z,64.70
2018-02-14T02:36:19.146Z,64.70
2018-02-14T02:38:46.129Z,64.70
2018-02-14T02:41:13.960Z,65.20
2018-02-14T02:43:41.016Z,65.20
2018-02-14T02:46:08.065Z,65.60
2018-02-14T02:48:35.046Z,66.20
2018-02-14T02:51:02.028Z,67.00
2018-02-14T02:53:29.011Z,66.50
2018-02-14T02:55:56.747Z,66.00
2018-02-14T02:58:23.731Z,65.90
2018-02-14T03:00:51.563Z,66.20
2018-02-14T03:03:18.623Z,66.20
2018-02-14T03:05:45.606Z,66.30
2018-02-14T03:08:12.639Z,66.40
2018-02-14T03:10:39.699Z,66.40
2018-02-14T03:13:06.681Z,66.30
2018-02-14T03:15:33.666Z,66.40
2018-02-14T03:18:01.399Z,67.20
2018-02-14T03:20:28.382Z,67.20
2018-02-14T03:22:55.350Z,67.60
2018-02-14T03:25:23.182Z,67.80
2018-02-14T03:27:50.162Z,68.00
2018-02-14T03:30:17.203Z,67.80
2018-02-14T03:32:44.270Z,67.90
2018-02-14T03:35:11.255Z,67.90
2018-02-14T03:37:38.228Z,68.00
2018-02-14T03:40:05.974Z,68.50
2018-02-14T03:42:32.953Z,68.40
2018-02-14T03:44:59.970Z,68.20
2018-02-14T03:47:27.030Z,68.40
2018-02-14T03:49:54.131Z,68.50
2018-02-14T03:52:21.103Z,68.70
2018-02-14T03:54:48.931Z,68.10
2018-02-14T03:57:15.912Z,68.00
2018-02-14T03:59:42.955Z,68.10
2018-02-14T04:02:10.008Z,68.00
2018-02-14T04:04:36.986Z,67.60
2018-02-14T04:07:03.959Z,67.60
2018-02-14T04:09:30.983Z,68.00
2018-02-14T04:11:58.043Z,68.00
2018-02-14T04:14:25.038Z,68.50
2018-02-14T04:16:52.063Z,68.30
2018-02-14T04:19:19.047Z,68.30
2018-02-14T04:21:46.082Z,68.50
2018-02-14T04:24:13.065Z,68.60
2018-02-14T04:26:40.039Z,68.80
2018-02-14T04:29:07.059Z,68.60
2018-02-14T04:31:34.040Z,68.70
2018-02-14T04:34:01.024Z,68.80
2018-02-14T04:36:28.851Z,69.00
2018-02-14T04:38:55.958Z,69.00
2018-02-14T04:41:23.719Z,69.90
2018-02-14T04:43:50.751Z,69.00
2018-02-14T04:46:17.811Z,69.30
2018-02-14T04:48:44.786Z,69.40
2018-02-14T04:51:11.831Z,69.20
2018-02-14T04:53:38.805Z,69.00
2018-02-14T04:56:05.782Z,69.30
2018-02-14T04:58:32.803Z,69.40
2018-02-14T05:00:59.786Z,69.60
2018-02-14T05:03:26.819Z,69.70
2018-02-14T05:05:53.808Z,69.90
2018-02-14T05:08:20.782Z,69.70
2018-02-14T05:10:47.759Z,69.70
2018-02-14T05:13:15.779Z,69.60
2018-02-14T05:15:42.819Z,69.60
2018-02-14T05:18:10.538Z,69.50
2018-02-14T05:20:37.518Z,69.50
2018-02-14T05:23:05.258Z,70.00
2018-02-14T05:25:32.238Z,69.40
2018-02-14T05:27:59.207Z,69.50
2018-02-14T05:30:26.185Z,69.60
2018-02-14T05:32:53.922Z,69.90
2018-02-14T05:35:20.902Z,69.90
2018-02-14T05:37:47.916Z,69.50
2018-02-14T05:40:14.867Z,69.50
2018-02-14T05:42:41.843Z,69.70
2018-02-14T05:45:08.822Z,69.70
2018-02-14T05:47:35.855Z,69.80
2018-02-14T05:50:02.830Z,69.90
2018-02-14T05:52:29.803Z,69.80
2018-02-14T05:54:56.787Z,69.70
2018-02-14T05:57:24.527Z,70.00
2018-02-14T05:59:51.511Z,70.00
2018-02-14T06:02:19.261Z,70.20
2018-02-14T06:04:46.294Z,70.20
2018-02-14T06:07:13.268Z,70.40
2018-02-14T06:09:40.255Z,70.20
2018-02-14T06:12:07.379Z,70.10
2018-02-14T06:14:34.363Z,70.10
2018-02-14T06:17:01.337Z,70.10
2018-02-14T06:19:28.307Z,70.30
2018-02-14T06:21:56.130Z,70.40
2018-02-14T06:24:23.107Z,70.30
2018-02-14T06:26:50.087Z,70.10
2018-02-14T06:29:17.065Z,69.60
2018-02-14T06:31:44.842Z,69.90
2018-02-14T06:34:11.835Z,69.90
2018-02-14T06:36:38.819Z,69.90
2018-02-14T06:39:05.802Z,70.00
2018-02-14T06:41:32.778Z,69.90
2018-02-14T06:44:00.594Z,70.10
2018-02-14T06:46:27.671Z,70.10
2018-02-14T06:48:54.643Z,70.10
2018-02-14T06:51:21.627Z,70.40
2018-02-14T06:53:49.366Z,70.60
2018-02-14T06:56:16.351Z,70.60
2018-02-14T06:58:44.183Z,70.40
2018-02-14T07:01:11.163Z,70.40
2018-02-14T07:03:38.207Z,70.60
2018-02-14T07:06:05.185Z,70.50
2018-02-14T07:08:32.218Z,70.30
2018-02-14T07:10:59.765Z,70.00
2018-02-14T07:13:26.747Z,70.10
2018-02-14T07:15:53.731Z,70.00
2018-02-14T07:18:20.711Z,70.10
2018-02-14T07:20:47.731Z,69.60
2018-02-14T07:23:14.711Z,70.00
2018-02-14T07:25:41.739Z,69.70
2018-02-14T07:28:08.803Z,69.90
2018-02-14T07:30:35.795Z,69.90
2018-02-14T07:33:02.840Z,70.00
2018-02-14T07:35:29.802Z,69.90
2018-02-14T07:37:56.839Z,69.80
2018-02-14T07:40:23.824Z,70.00
2018-02-14T07:42:52.303Z,69.80
2018-02-14T07:45:19.327Z,69.80
2018-02-14T07:47:47.046Z,69.90
2018-02-14T07:50:14.030Z,69.90
2018-02-14T07:52:41.855Z,70.40
2018-02-14T07:55:08.923Z,69.90
2018-02-14T07:57:35.999Z,69.80
2018-02-14T08:00:02.980Z,69.90
2018-02-14T08:02:29.968Z,69.80
2018-02-14T08:04:56.955Z,69.70
2018-02-14T08:07:23.940Z,69.70
2018-02-14T08:09:50.974Z,69.50
2018-02-14T08:12:17.962Z,69.60
2018-02-14T08:14:45.933Z,69.50
2018-02-14T08:17:12.976Z,69.50
2018-02-14T08:19:40.760Z,69.30
2018-02-14T08:22:07.815Z,69.00
2018-02-14T08:24:35.960Z,68.80
2018-02-14T08:27:03.783Z,67.70
2018-02-14T08:29:30.767Z,67.70
2018-02-14T08:31:57.750Z,67.20
2018-02-14T08:34:25.578Z,66.90
2018-02-14T08:36:52.630Z,66.80
2018-02-14T08:39:19.603Z,66.60
2018-02-14T08:41:46.618Z,66.50
2018-02-14T08:44:13.694Z,65.90
2018-02-14T08:46:40.666Z,66.00
2018-02-14T08:49:07.705Z,65.50
2018-02-14T08:51:34.675Z,65.30
2018-02-14T08:54:01.647Z,64.90
2018-02-14T08:56:28.619Z,64.50
2018-02-14T08:58:56.448Z,64.20
2018-02-14T09:01:23.528Z,64.10
2018-02-14T09:03:50.494Z,63.50
2018-02-14T09:06:17.531Z,63.00
2018-02-14T09:08:44.498Z,62.60
2018-02-14T09:11:11.647Z,62.30
2018-02-14T09:13:38.618Z,62.20
2018-02-14T09:16:05.595Z,61.20
2018-02-14T09:18:32.619Z,61.00
2018-02-14T09:20:59.683Z,60.60
2018-02-14T09:23:26.655Z,61.00
2018-02-14T09:25:53.698Z,60.60
2018-02-14T09:28:20.760Z,60.10
2018-02-14T09:30:47.734Z,60.00
2018-02-14T09:33:14.707Z,59.20
2018-02-14T09:35:41.683Z,58.80
2018-02-14T09:38:09.419Z,58.50
2018-02-14T09:40:36.471Z,58.50
2018-02-14T09:43:03.438Z,58.80
2018-02-14T09:45:30.495Z,57.80
2018-02-14T09:47:57.470Z,57.80
2018-02-14T09:50:25.956Z,57.20
2018-02-14T09:52:52.937Z,57.10
2018-02-14T09:55:19.908Z,56.90
2018-02-14T09:57:47.735Z,55.90
2018-02-14T10:00:14.806Z,56.50
2018-02-14T10:02:41.836Z,55.10
2018-02-14T10:05:09.546Z,53.90
2018-02-14T10:07:36.575Z,53.80
2018-02-14T10:10:03.648Z,52.80
2018-02-14T10:12:30.707Z,53.10
2018-02-14T10:14:57.679Z,52.20
2018-02-14T10:17:24.733Z,52.20
2018-02-14T10:19:51.707Z,51.50
2018-02-14T10:22:18.771Z,50.70
2018-02-14T10:24:45.738Z,50.20
2018-02-14T10:27:13.586Z,50.20
2018-02-14T10:29:40.638Z,50.30
2018-02-14T10:32:07.619Z,49.70
2018-02-14T10:34:34.587Z,49.60
2018-02-14T10:37:01.628Z,47.60
2018-02-14T10:39:28.675Z,47.50
2018-02-14T10:41:55.663Z,47.60
2018-02-14T10:44:22.707Z,48.40
2018-02-14T10:46:49.692Z,48.10
2018-02-14T10:49:16.663Z,46.60
2018-02-14T10:51:43.679Z,46.50
2018-02-14T10:54:10.647Z,45.90
2018-02-14T10:56:37.695Z,44.50
2018-02-14T10:59:04.667Z,43.70
2018-02-14T11:01:37.383Z,41.10
2018-02-14T11:04:10.210Z,40.80
2018-02-14T11:06:37.186Z,40.20
2018-02-14T11:09:04.155Z,40.10
2018-02-14T11:11:31.211Z,40.20
2018-02-14T11:13:58.284Z,40.30
2018-02-14T11:16:25.263Z,41.10
2018-02-14T11:18:52.239Z,39.60
2018-02-14T11:21:19.216Z,39.50
2018-02-14T11:23:46.952Z,39.80
2018-02-14T11:26:13.996Z,39.80
2018-02-14T11:28:40.962Z,38.10
2018-02-14T11:31:07.943Z,34.70
2018-02-14T11:33:34.918Z,30.80
2018-02-14T11:36:02.654Z,33.00
2018-02-14T11:38:29.643Z,32.80
2018-02-14T11:40:57.484Z,36.20
2018-02-14T11:43:24.462Z,36.20
2018-02-14T11:45:51.432Z,36.60
2018-02-14T11:48:18.432Z,37.80
2018-02-14T11:50:46.231Z,37.30
2018-02-14T11:53:13.210Z,37.20
2018-02-14T11:55:40.251Z,39.40
2018-02-14T11:58:07.228Z,39.60
2018-02-14T12:00:34.448Z,39.40
2018-02-14T12:03:02.191Z,39.00
2018-02-14T12:05:29.931Z,39.10
2018-02-14T12:07:56.920Z,39.10
2018-02-14T12:10:24.660Z,38.00
2018-02-14T12:12:51.640Z,38.10
2018-02-14T12:15:18.703Z,39.00
2018-02-14T12:17:45.687Z,38.20
2018-02-14T12:20:12.689Z,37.00
2018-02-14T12:22:39.675Z,35.10
2018-02-14T12:25:06.655Z,30.30
2018-02-14T12:27:34.402Z,27.00
2018-02-14T12:30:01.443Z,26.90
2018-02-14T12:32:28.431Z,25.90
2018-02-14T12:34:55.466Z,26.30
2018-02-14T12:37:22.447Z,26.60
2018-02-14T12:39:51.022Z,27.80
2018-02-14T12:42:18.004Z,27.80
2018-02-14T12:44:44.981Z,28.60
2018-02-14T12:47:12.727Z,29.10
2018-02-14T12:49:39.698Z,28.70
2018-02-14T12:52:06.748Z,30.20
2018-02-14T12:54:33.787Z,30.30
2018-02-14T12:57:00.848Z,29.90
2018-02-14T12:59:27.823Z,29.00
2018-02-14T13:01:54.820Z,29.30
2018-02-14T13:04:22.550Z,28.10
2018-02-14T13:06:49.603Z,28.00
2018-02-14T13:09:16.588Z,28.00
2018-02-14T13:11:43.575Z,27.90
2018-02-14T13:14:11.319Z,25.70
2018-02-14T13:16:38.296Z,25.70
2018-02-14T13:19:05.276Z,25.20
2018-02-14T13:21:32.250Z,24.00
2018-02-14T13:23:59.234Z,24.40
2018-02-14T13:26:26.234Z,25.70
2018-02-14T13:28:53.191Z,24.30
2018-02-14T13:31:20.931Z,21.80
2018-02-14T13:33:47.983Z,21.80
2018-02-14T13:36:15.040Z,20.90
2018-02-14T13:38:42.024Z,20.60
2018-02-14T13:41:09.019Z,20.50
2018-02-14T13:43:36.849Z,19.80
2018-02-14T13:46:03.822Z,19.80
2018-02-14T13:48:30.855Z,19.60
2018-02-14T13:50:57.915Z,18.80
2018-02-14T13:53:24.899Z,18.90
2018-02-14T13:55:51.875Z,19.60
2018-02-14T13:58:19.622Z,18.80
2018-02-14T14:00:46.672Z,18.50
2018-02-14T14:03:13.651Z,19.20
2018-02-14T14:05:40.697Z,19.40
2018-02-14T14:08:07.742Z,19.10
2018-02-14T14:10:34.719Z,18.80
2018-02-14T14:13:01.767Z,20.20
2018-02-14T14:15:28.822Z,19.50
2018-02-14T14:17:55.803Z,20.00
2018-02-14T14:20:22.847Z,20.40
2018-02-14T14:22:49.908Z,21.10
2018-02-14T14:25:16.959Z,22.70
2018-02-14T14:27:43.951Z,23.90
2018-02-14T14:30:10.950Z,24.80
2018-02-14T14:32:38.691Z,26.00
2018-02-14T14:35:05.723Z,26.00
2018-02-14T14:37:32.774Z,26.40
2018-02-14T14:39:59.746Z,27.60
2018-02-14T14:42:26.790Z,29.90
2018-02-14T14:44:53.766Z,31.60
2018-02-14T14:47:20.748Z,32.70
2018-02-14T14:49:47.722Z,30.80
2018-02-14T14:52:15.552Z,32.70
2018-02-14T14:54:42.631Z,32.60
2018-02-14T14:57:09.690Z,32.30
2018-02-14T14:59:36.665Z,33.40
2018-02-14T15:02:03.686Z,34.20
2018-02-14T15:04:30.663Z,33.70
2018-02-14T15:06:57.703Z,36.00
2018-02-14T15:09:24.682Z,36.00
2018-02-14T15:11:51.647Z,37.70
2018-02-14T15:14:18.626Z,40.20
2018-02-14T15:16:46.364Z,38.00
2018-02-14T15:19:13.410Z,37.90
2018-02-14T15:21:40.475Z,36.00
2018-02-14T15:24:07.454Z,37.00
2018-02-14T15:26:34.487Z,37.20
2018-02-14T15:29:01.550Z,38.90
2018-02-14T15:31:28.612Z,40.20
2018-02-14T15:33:55.590Z,40.70
2018-02-14T15:36:22.664Z,38.90
2018-02-14T15:38:49.692Z,41.10
2018-02-14T15:41:16.756Z,42.00
2018-02-14T15:43:43.744Z,42.60
2018-02-14T15:46:10.713Z,42.90
2018-02-14T15:48:38.544Z,41.80
2018-02-14T15:51:05.516Z,41.80
2018-02-14T15:53:32.563Z,38.70
2018-02-14T15:55:59.535Z,40.40
2018-02-14T15:58:26.578Z,41.70
2018-02-14T16:00:53.552Z,41.00
2018-02-14T16:03:20.527Z,41.60
2018-02-14T16:05:47.516Z,40.60
2018-02-14T16:08:15.277Z,42.10
2018-02-14T16:10:42.227Z,42.10
2018-02-14T16:13:10.199Z,42.70
2018-02-14T16:15:37.170Z,43.60
2018-02-14T16:18:04.163Z,42.70
2018-02-14T16:20:31.135Z,43.00
2018-02-14T16:22:58.111Z,43.00
2018-02-14T16:25:25.075Z,43.30
2018-02-14T16:27:52.126Z,42.70
2018-02-14T16:30:19.103Z,43.40
2018-02-14T16:32:46.079Z,44.00
2018-02-14T16:35:13.107Z,44.70
2018-02-14T16:37:40.166Z,44.70
2018-02-14T16:40:07.131Z,45.10
2018-02-14T16:42:34.127Z,45.50
2018-02-14T16:45:01.876Z,45.20
2018-02-14T16:47:28.919Z,45.10
2018-02-14T16:49:55.967Z,46.20
2018-02-14T16:52:22.959Z,47.10
2018-02-14T16:54:50.700Z,47.30
2018-02-14T16:57:17.686Z,46.70
2018-02-14T16:59:44.732Z,47.70
2018-02-14T17:02:11.887Z,47.80
2018-02-14T17:04:38.863Z,47.80
2018-02-14T17:07:05.906Z,46.80
2018-02-14T17:09:32.888Z,47.30
2018-02-14T17:11:59.901Z,47.90
2018-02-14T17:14:27.704Z,49.70
2018-02-14T17:16:54.707Z,49.70
2018-02-14T17:19:22.539Z,51.00
2018-02-14T17:21:49.517Z,51.00
2018-02-14T17:24:16.515Z,51.50
2018-02-14T17:26:43.538Z,51.60
2018-02-14T17:29:10.541Z,52.00
2018-02-14T17:31:37.515Z,52.10
2018-02-14T17:34:04.493Z,51.60
2018-02-14T17:36:31.491Z,51.80
2018-02-14T17:38:58.508Z,51.80
2018-02-14T17:41:25.474Z,52.10
2018-02-14T17:43:52.527Z,52.00
2018-02-14T17:46:19.498Z,52.20
2018-02-14T17:48:46.542Z,51.80
2018-02-14T17:51:13.516Z,52.60
2018-02-14T17:53:40.566Z,53.00
2018-02-14T17:56:07.624Z,52.90
2018-02-14T17:58:34.679Z,53.30
2018-02-14T18:01:01.744Z,53.30
2018-02-14T18:03:28.808Z,53.60
2018-02-14T18:05:55.811Z,53.90
2018-02-14T18:08:22.776Z,54.50
2018-02-14T18:10:51.251Z,54.90
2018-02-14T18:13:18.222Z,54.90
2018-02-14T18:15:45.967Z,56.30
2018-02-14T18:18:13.023Z,56.30
2018-02-14T18:20:40.008Z,56.50
2018-02-14T18:23:06.974Z,56.50
2018-02-14T18:25:34.715Z,56.50
2018-02-14T18:28:01.688Z,56.40
2018-02-14T18:30:28.732Z,56.30
2018-02-14T18:32:55.707Z,56.30
2018-02-14T18:35:22.730Z,56.70
2018-02-14T18:37:49.791Z,57.30
2018-02-14T18:40:16.783Z,57.80
2018-02-14T18:42:43.970Z,58.10
2018-02-14T18:45:10.931Z,57.90
2018-02-14T18:47:38.750Z,58.20
2018-02-14T18:50:05.818Z,58.10
2018-02-14T18:52:32.875Z,58.10
2018-02-14T18:54:59.851Z,58.00
2018-02-14T18:57:26.891Z,58.30
2018-02-14T18:59:53.868Z,58.00
2018-02-14T19:02:20.851Z,58.60
2018-02-14T19:04:47.881Z,58.00
2018-02-14T19:07:14.855Z,57.40
2018-02-14T19:09:41.828Z,57.70
2018-02-14T19:12:08.804Z,57.90
2018-02-14T19:14:36.629Z,58.60
2018-02-14T19:17:03.687Z,58.60
2018-02-14T19:19:30.756Z,58.70
2018-02-14T19:21:57.734Z,58.90
2018-02-14T19:24:24.761Z,58.60
2018-02-14T19:26:51.756Z,58.80
2018-02-14T19:29:18.780Z,59.00
2018-02-14T19:31:45.843Z,59.30
2018-02-14T19:34:12.818Z,59.10
2018-02-14T19:36:39.860Z,59.00
2018-02-14T19:39:06.839Z,58.90
2018-02-14T19:41:33.799Z,58.50
2018-02-14T19:44:00.835Z,58.70
2018-02-14T19:46:27.798Z,58.90
2018-02-14T19:48:54.779Z,59.00
2018-02-14T19:51:21.746Z,59.10
2018-02-14T19:53:48.771Z,58.90
2018-02-14T19:56:15.751Z,58.70
2018-02-14T19:58:42.897Z,58.80
2018-02-14T20:01:09.975Z,58.70
2018-02-14T20:03:36.913Z,58.70
2018-02-14T20:06:03.962Z,58.80
2018-02-14T20:08:30.937Z,59.00
2018-02-14T20:10:57.907Z,58.90
2018-02-14T20:13:25.664Z,59.20
2018-02-14T20:15:52.728Z,58.60
2018-02-14T20:18:19.787Z,58.30
2018-02-14T20:20:46.843Z,58.40
2018-02-14T20:23:13.908Z,58.50
2018-02-14T20:25:40.878Z,58.40
2018-02-14T20:28:07.923Z,58.30
2018-02-14T20:30:34.975Z,58.30
2018-02-14T20:33:01.951Z,58.40
2018-02-14T20:35:28.991Z,58.40
2018-02-14T20:37:55.984Z,58.40
2018-02-14T20:40:22.947Z,58.60
2018-02-14T20:42:50.791Z,58.50
2018-02-14T20:45:17.849Z,58.50
2018-02-14T20:47:44.827Z,58.70
2018-02-14T20:50:11.887Z,58.70
2018-02-14T20:52:38.855Z,58.70
2018-02-14T20:55:05.926Z,58.90
2018-02-14T20:57:32.912Z,58.90
2018-02-14T20:59:59.903Z,59.00
2018-02-14T21:02:26.879Z,59.00
2018-02-14T21:04:53.855Z,59.00
2018-02-14T21:07:20.826Z,59.20
2018-02-14T21:09:47.834Z,59.20
2018-02-14T21:12:14.896Z,59.90
2018-02-14T21:14:41.873Z,59.30
2018-02-14T21:17:08.842Z,59.50
2018-02-14T21:19:35.819Z,59.50
2018-02-14T21:22:03.614Z,59.90
2018-02-14T21:24:30.595Z,59.70
2018-02-14T21:26:57.576Z,59.80
2018-02-14T21:29:24.551Z,59.90
2018-02-14T21:31:51.519Z,60.00
2018-02-14T21:34:19.263Z,60.10
2018-02-14T21:36:46.236Z,60.20
2018-02-14T21:39:13.323Z,60.50
2018-02-14T21:41:40.245Z,60.50
2018-02-14T21:44:07.237Z,60.60
2018-02-14T21:46:35.699Z,60.70
2018-02-14T21:49:02.678Z,60.70
2018-02-14T21:51:29.702Z,60.40
2018-02-14T21:53:56.768Z,61.00
2018-02-14T21:56:23.747Z,61.20
2018-02-14T21:58:50.723Z,61.60
2018-02-14T22:01:17.694Z,61.50
2018-02-14T22:03:45.523Z,61.90
2018-02-14T22:06:12.583Z,61.90
2018-02-14T22:08:39.636Z,62.90
2018-02-14T22:11:06.704Z,63.50
2018-02-14T22:13:33.758Z,63.70
2018-02-14T22:16:00.726Z,64.00
2018-02-14T22:18:27.708Z,63.70
2018-02-14T22:20:54.679Z,63.90
2018-02-14T22:23:23.147Z,63.80
2018-02-14T22:25:50.119Z,62.90
2018-02-14T22:28:17.095Z,64.20
2018-02-14T22:30:44.926Z,63.70
2018-02-14T22:33:11.895Z,63.70
2018-02-14T22:35:38.935Z,64.00
2018-02-14T22:38:06.012Z,63.30
2018-02-14T22:40:33.061Z,63.50
2018-02-14T22:43:00.119Z,63.50
2018-02-14T22:45:27.174Z,63.40
2018-02-14T22:47:54.146Z,63.00
2018-02-14T22:50:21.199Z,63.20
2018-02-14T22:52:48.162Z,63.70
2018-02-14T22:55:15.143Z,63.50
2018-02-14T22:57:42.116Z,63.50
2018-02-14T23:00:09.130Z,63.80
2018-02-14T23:02:36.104Z,63.50
2018-02-14T23:05:03.080Z,63.80
2018-02-14T23:07:30.045Z,63.90
2018-02-14T23:09:57.059Z,64.10
2018-02-14T23:12:24.122Z,64.20
2018-02-14T23:14:51.096Z,64.20
2018-02-14T23:17:18.067Z,64.00
2018-02-14T23:19:45.047Z,64.00
2018-02-14T23:22:12.903Z,64.00
2018-02-14T23:24:39.935Z,64.00
2018-02-14T23:27:06.907Z,63.80
2018-02-14T23:29:33.891Z,63.80
2018-02-14T23:32:00.862Z,64.40
2018-02-14T23:34:27.868Z,64.10
2018-02-14T23:36:54.841Z,64.40
2018-02-14T23:39:21.887Z,64.70
2018-02-14T23:41:48.952Z,64.70
2018-02-14T23:44:16.007Z,64.40
2018-02-14T23:46:43.079Z,64.60
2018-02-14T23:49:10.047Z,64.60
2018-02-14T23:51:37.018Z,64.60
2018-02-14T23:54:04.046Z,64.70
2018-02-14T23:56:31.020Z,64.70
2018-02-14T23:58:57.999Z,65.20
